»·PEaware :: DCM983 KOLM-KASE

DCM983 :: KOLM-KASE

FLIGHT INFORMATION

Flight Status: Arrived
Operator: Unknown
More flights by this operator :: More flights under this callsign
Pilot: Anonymous 15639 (15639)
Aircraft: BOMBARDIER BD-100 CHALLENGER 300
(CL30)
More flights by this aircraft type
Origin: KOLM Olympia
United States
Destination: KASE Aspen-Pitkin Co/Sardy
United States
More flights between these airports :: More routes between these airports
Route: +OLM WANTA Q154 BONGO DBL
File this flight plan on PilotEdge
Remarks:
Altitude:
(Current/Filed)
37,000ft
Speed:
(Current/Filed)
460kts
Departed: 28-Nov-17 03:22 PM
Arrived: 28-Nov-17 05:24 PM
Distance/Time
Traveled:
840nm/2:02
Distance/Time
To Go:
Arrived

Flight Plot

Page will automatically refresh every two minutes.

Flight plan parsing failed; only flown route is shown


Map Options




Map Legend


Flown Route
Filed Route
Departure Airport
Arrival Airport
Navaid (VOR, NDB)
Fix

Horizontal Profiles

Position Reports

Time Latitude Longitude Heading Altitude Ground
Speed
28-Nov-17 15:02 46.975576 -122.909259 316 215ft 0kts
28-Nov-17 15:03 46.975576 -122.909259 316 215ft 0kts
28-Nov-17 15:04 46.975576 -122.909259 316 215ft 0kts
28-Nov-17 15:05 46.975576 -122.909259 316 215ft 0kts
28-Nov-17 15:06 46.975576 -122.909259 316 215ft 0kts
28-Nov-17 15:07 46.975576 -122.909259 316 215ft 0kts
28-Nov-17 15:08 46.975576 -122.909259 316 215ft 0kts
28-Nov-17 15:09 46.975576 -122.909259 316 215ft 0kts
28-Nov-17 15:10 46.975576 -122.909259 316 215ft 0kts
28-Nov-17 15:11 46.975576 -122.909259 316 215ft 0kts
28-Nov-17 15:12 46.975576 -122.909259 316 215ft 0kts
28-Nov-17 15:13 46.975576 -122.909259 316 215ft 0kts
28-Nov-17 15:14 46.975576 -122.909259 316 215ft 0kts
28-Nov-17 15:15 46.975576 -122.909259 316 215ft 0kts
28-Nov-17 15:16 46.975576 -122.909259 316 215ft 0kts
28-Nov-17 15:17 46.975576 -122.909259 316 215ft 0kts
28-Nov-17 15:18 46.975576 -122.909259 316 215ft 0kts
28-Nov-17 15:19 46.975576 -122.909259 316 215ft 0kts
28-Nov-17 15:20 46.975576 -122.909259 316 215ft 0kts
28-Nov-17 15:21 46.975576 -122.909259 316 215ft 0kts
28-Nov-17 15:22 46.975686 -122.909120 119 215ft 3kts
28-Nov-17 15:23 46.976782 -122.907382 102 215ft 9kts
28-Nov-17 15:24 46.976494 -122.905335 101 214ft 0kts
28-Nov-17 15:25 46.976494 -122.905335 101 214ft 0kts
28-Nov-17 15:26 46.976006 -122.902979 147 215ft 11kts
28-Nov-17 15:27 46.954870 -122.908428 191 1501ft 168kts
28-Nov-17 15:28 46.895078 -122.920681 190 1506ft 244kts
28-Nov-17 15:29 46.837701 -122.897545 103 3218ft 261kts
28-Nov-17 15:30 46.840148 -122.786899 91 9306ft 305kts
28-Nov-17 15:31 46.840487 -122.656916 97 14557ft 349kts
28-Nov-17 15:32 46.811497 -122.510861 118 18000ft 390kts
28-Nov-17 15:33 46.762894 -122.365465 125 22209ft 412kts
28-Nov-17 15:34 46.706845 -122.216554 128 25801ft 431kts
28-Nov-17 15:35 46.646889 -122.062375 129 28858ft 448kts
28-Nov-17 15:36 46.584077 -121.902694 130 31532ft 462kts
28-Nov-17 15:37 46.519931 -121.740604 131 34420ft 460kts
28-Nov-17 15:38 46.456760 -121.584849 133 37029ft 452kts
28-Nov-17 15:39 46.390469 -121.430113 133 37080ft 451kts
28-Nov-17 15:40 46.324453 -121.276838 134 37062ft 449kts
28-Nov-17 15:41 46.258464 -121.124426 134 37060ft 447kts
28-Nov-17 15:42 46.192541 -120.973014 135 37053ft 446kts
28-Nov-17 15:43 46.126326 -120.821835 135 37052ft 446kts
28-Nov-17 15:44 46.060199 -120.671626 135 37044ft 446kts
28-Nov-17 15:45 45.993790 -120.521557 135 37046ft 445kts
28-Nov-17 15:46 45.926963 -120.371363 135 37045ft 446kts
28-Nov-17 15:47 45.861857 -120.225808 136 37048ft 446kts
28-Nov-17 15:48 45.794964 -120.077037 136 37055ft 446kts
28-Nov-17 15:49 45.727502 -119.927798 136 37061ft 447kts
28-Nov-17 15:50 45.659651 -119.778493 136 37023ft 448kts
28-Nov-17 15:51 45.591511 -119.629324 136 37023ft 449kts
28-Nov-17 15:52 45.523350 -119.480857 136 37380ft 446kts
28-Nov-17 15:53 45.455505 -119.333908 136 38783ft 445kts
28-Nov-17 15:54 45.387467 -119.187304 137 40237ft 446kts
28-Nov-17 15:55 45.319047 -119.040639 136 40987ft 447kts
28-Nov-17 15:56 45.250145 -118.893774 136 40987ft 451kts
28-Nov-17 15:57 45.179538 -118.744012 135 41000ft 466kts
28-Nov-17 15:58 45.106462 -118.589743 135 41070ft 478kts
28-Nov-17 15:59 45.031901 -118.433201 134 41090ft 480kts
28-Nov-17 16:00 44.956830 -118.284913 137 41080ft 471kts
28-Nov-17 16:01 44.878487 -118.138969 137 41109ft 467kts
28-Nov-17 16:02 44.799874 -117.993584 137 41113ft 467kts
28-Nov-17 16:03 44.721298 -117.849046 137 41115ft 467kts
28-Nov-17 16:04 44.642352 -117.704561 137 41115ft 467kts
28-Nov-17 16:05 44.563054 -117.560163 137 41116ft 467kts
28-Nov-17 16:06 44.483715 -117.416410 137 41116ft 468kts
28-Nov-17 16:07 44.404218 -117.273064 138 41156ft 466kts
28-Nov-17 16:08 44.327637 -117.127434 134 41195ft 470kts
28-Nov-17 16:09 44.254326 -116.977207 134 41197ft 469kts
28-Nov-17 16:10 44.180501 -116.826702 133 41199ft 471kts
28-Nov-17 16:11 44.106384 -116.676352 133 41193ft 473kts
28-Nov-17 16:12 44.032012 -116.526291 133 41171ft 476kts
28-Nov-17 16:13 43.956608 -116.374947 133 41164ft 478kts
28-Nov-17 16:14 43.881035 -116.224046 134 41157ft 479kts
28-Nov-17 16:15 43.804784 -116.072578 134 41158ft 480kts
28-Nov-17 16:16 43.728264 -115.921364 134 41159ft 481kts
28-Nov-17 16:17 43.651547 -115.770537 134 41160ft 483kts
28-Nov-17 16:18 43.571621 -115.622776 135 41167ft 481kts
28-Nov-17 16:19 43.491131 -115.476164 135 41171ft 482kts
28-Nov-17 16:20 43.410056 -115.329222 136 41162ft 482kts
28-Nov-17 16:21 43.329164 -115.183331 136 41160ft 481kts
28-Nov-17 16:22 43.248182 -115.038079 135 41191ft 480kts
28-Nov-17 16:23 43.167000 -114.893089 135 41212ft 481kts
28-Nov-17 16:24 43.085317 -114.747904 135 41215ft 484kts
28-Nov-17 16:25 43.003075 -114.602514 134 41212ft 486kts
28-Nov-17 16:26 42.920266 -114.456847 133 41213ft 487kts
28-Nov-17 16:27 42.838671 -114.313932 134 41209ft 488kts
28-Nov-17 16:28 42.755211 -114.168460 134 41206ft 488kts
28-Nov-17 16:29 42.671563 -114.023410 134 41195ft 489kts
28-Nov-17 16:30 42.587787 -113.878847 134 41193ft 489kts
28-Nov-17 16:31 42.512409 -113.723880 128 41194ft 494kts
28-Nov-17 16:32 42.437870 -113.568227 128 41195ft 494kts
28-Nov-17 16:33 42.363002 -113.412842 128 41196ft 494kts
28-Nov-17 16:34 42.287925 -113.257853 129 41188ft 493kts
28-Nov-17 16:35 42.213165 -113.104319 129 41189ft 491kts
28-Nov-17 16:36 42.138134 -112.951073 128 41199ft 490kts
28-Nov-17 16:37 42.062755 -112.797879 127 41226ft 491kts
28-Nov-17 16:38 41.987513 -112.645607 127 41238ft 492kts
28-Nov-17 16:39 41.911407 -112.492424 127 41241ft 493kts
28-Nov-17 16:40 41.838101 -112.345637 128 41244ft 495kts
28-Nov-17 16:41 41.754302 -112.201255 133 41236ft 493kts
28-Nov-17 16:42 41.668067 -112.058835 133 41237ft 493kts
28-Nov-17 16:43 41.581522 -111.916610 133 41228ft 494kts
28-Nov-17 16:44 41.494970 -111.775068 133 41230ft 495kts
28-Nov-17 16:45 41.407744 -111.633063 133 41226ft 496kts
28-Nov-17 16:46 41.320450 -111.491630 133 41224ft 497kts
28-Nov-17 16:47 41.232599 -111.349951 134 41225ft 497kts
28-Nov-17 16:48 41.147135 -111.206375 129 41217ft 500kts
28-Nov-17 16:49 41.066670 -111.056539 129 41218ft 499kts
28-Nov-17 16:50 40.986258 -110.907577 129 41209ft 497kts
28-Nov-17 16:51 40.905879 -110.759382 128 41219ft 495kts
28-Nov-17 16:52 40.826625 -110.613980 128 41220ft 493kts
28-Nov-17 16:53 40.746740 -110.468125 128 41231ft 492kts
28-Nov-17 16:54 40.666822 -110.322889 129 41238ft 491kts
28-Nov-17 16:55 40.586631 -110.177842 129 41244ft 489kts
28-Nov-17 16:56 40.506659 -110.033863 129 41246ft 488kts
28-Nov-17 16:57 40.426857 -109.890850 129 41247ft 488kts
28-Nov-17 16:58 40.346705 -109.747864 129 41248ft 487kts
28-Nov-17 16:59 40.266355 -109.605178 129 41249ft 487kts
28-Nov-17 17:00 40.185917 -109.462983 129 41250ft 487kts
28-Nov-17 17:01 40.114409 -109.312021 112 40201ft 505kts
28-Nov-17 17:02 40.068434 -109.142445 111 38376ft 482kts
28-Nov-17 17:03 40.024031 -108.977742 109 36572ft 488kts
28-Nov-17 17:04 39.978271 -108.808337 109 34605ft 502kts
28-Nov-17 17:05 39.931526 -108.636457 109 32640ft 507kts
28-Nov-17 17:06 39.884485 -108.464750 110 30671ft 503kts
28-Nov-17 17:07 39.838287 -108.297303 111 28678ft 495kts
28-Nov-17 17:08 39.792277 -108.131608 112 26575ft 482kts
28-Nov-17 17:09 39.747324 -107.970737 112 24470ft 462kts
28-Nov-17 17:10 39.705697 -107.822598 112 22360ft 417kts
28-Nov-17 17:11 39.668928 -107.692530 113 20347ft 387kts
28-Nov-17 17:12 39.632959 -107.565967 113 18251ft 363kts
28-Nov-17 17:13 39.598701 -107.445939 113 16171ft 355kts
28-Nov-17 17:14 39.565106 -107.328830 113 14081ft 344kts
28-Nov-17 17:15 39.532427 -107.216023 113 13032ft 315kts
28-Nov-17 17:16 39.503787 -107.115652 113 13032ft 284kts
28-Nov-17 17:17 39.477834 -107.023147 113 13031ft 264kts
28-Nov-17 17:18 39.453160 -106.936590 113 13037ft 256kts
28-Nov-17 17:19 39.418028 -106.865829 177 13013ft 223kts
28-Nov-17 17:20 39.412670 -106.915005 342 12936ft 208kts
28-Nov-17 17:21 39.468954 -106.932780 344 12935ft 212kts
28-Nov-17 17:22 39.510482 -106.904353 109 12936ft 211kts
28-Nov-17 17:23 39.459560 -106.883159 184 12937ft 209kts
28-Nov-17 17:24 39.400586 -106.887279 184 12962ft 204kts
28-Nov-17 17:25 39.351341 -106.885093 177 12215ft 155kts
28-Nov-17 17:26 39.310102 -106.888986 190 11031ft 152kts
28-Nov-17 17:27 39.268146 -106.889745 170 9160ft 156kts
28-Nov-17 17:28 39.228844 -106.871596 161 7829ft 140kts
28-Nov-17 17:29 39.218460 -106.865501 137 7825ft 10kts
28-Nov-17 17:30 39.218278 -106.864256 76 7825ft 0kts
28-Nov-17 17:31 39.218278 -106.864256 76 7825ft 0kts

Navigation Log

Ident Type
Flight plan parsing failed, navigation log unavailable